Terminal Aerodrome Forecast
Issued by NWS

Home | Current Version | Previous Version | Text Only | Print | Product List | Glossary On
Versions: 1 2 3 4 5 6 7 8 9 10 11 12 13 14 15 16 17
540
FTUS43 KIND 271318 AAA
TAFBMG
TAF AMD
KBMG 271318Z 2713/2812 16005KT P6SM VCSH SCT025 BKN035
      TEMPO 2713/2715 BKN025
     FM271500 14005KT P6SM OVC035
     FM271700 14005KT P6SM BKN025
     FM272000 15006KT P6SM BKN035
     FM280700 16008KT 6SM -SHRA BR VCTS BKN035CB
     FM280900 18009KT 5SM -SHRA BR VCTS BKN015CB
      AMD LTD TO CLD VIS AND WIND TIL 271400=

USA.gov is the U.S. government's official web portal to all federal, state and local government web resources and services.